sensor_id;sensor_type;location;lat;lon;timestamp;temperature;humidity
16879;DHT22;8556;52.218;9.884;2023-12-28T00:01:38;8.90;99.90
16879;DHT22;8556;52.218;9.884;2023-12-28T00:04:04;9.00;99.90
16879;DHT22;8556;52.218;9.884;2023-12-28T00:06:32;9.20;99.90
16879;DHT22;8556;52.218;9.884;2023-12-28T00:08:59;9.20;99.90
16879;DHT22;8556;52.218;9.884;2023-12-28T00:11:27;9.00;99.90
16879;DHT22;8556;52.218;9.884;2023-12-28T00:13:53;9.00;99.90
16879;DHT22;8556;52.218;9.884;2023-12-28T00:16:20;9.10;99.90
16879;DHT22;8556;52.218;9.884;2023-12-28T00:18:47;9.00;99.90
16879;DHT22;8556;52.218;9.884;2023-12-28T00:21:14;9.10;99.90
16879;DHT22;8556;52.218;9.884;2023-12-28T00:23:42;9.10;99.90
16879;DHT22;8556;52.218;9.884;2023-12-28T00:26:09;9.10;99.90
16879;DHT22;8556;52.218;9.884;2023-12-28T00:28:35;9.20;99.90
16879;DHT22;8556;52.218;9.884;2023-12-28T00:31:02;9.10;99.90
16879;DHT22;8556;52.218;9.884;2023-12-28T00:33:29;9.20;99.90
16879;DHT22;8556;52.218;9.884;2023-12-28T00:35:56;9.20;99.90
16879;DHT22;8556;52.218;9.884;2023-12-28T00:38:23;9.30;99.90
16879;DHT22;8556;52.218;9.884;2023-12-28T00:40:51;9.30;99.90
16879;DHT22;8556;52.218;9.884;2023-12-28T00:43:18;9.20;99.90
16879;DHT22;8556;52.218;9.884;2023-12-28T00:45:44;9.20;99.90
16879;DHT22;8556;52.218;9.884;2023-12-28T00:48:11;9.20;99.90
16879;DHT22;8556;52.218;9.884;2023-12-28T00:50:38;9.20;99.90
16879;DHT22;8556;52.218;9.884;2023-12-28T00:53:05;9.20;99.90
16879;DHT22;8556;52.218;9.884;2023-12-28T00:55:31;9.30;99.90
16879;DHT22;8556;52.218;9.884;2023-12-28T00:58:00;9.20;99.90
16879;DHT22;8556;52.218;9.884;2023-12-28T01:00:26;9.10;99.90
16879;DHT22;8556;52.218;9.884;2023-12-28T01:02:54;9.10;1.00
16879;DHT22;8556;52.218;9.884;2023-12-28T01:05:21;9.20;1.00
16879;DHT22;8556;52.218;9.884;2023-12-28T01:07:51;9.00;1.00
16879;DHT22;8556;52.218;9.884;2023-12-28T01:10:18;9.00;1.00
16879;DHT22;8556;52.218;9.884;2023-12-28T01:12:45;9.10;1.00
16879;DHT22;8556;52.218;9.884;2023-12-28T01:15:12;9.00;1.00
16879;DHT22;8556;52.218;9.884;2023-12-28T01:17:39;8.90;99.90
16879;DHT22;8556;52.218;9.884;2023-12-28T01:20:07;8.80;99.90
16879;DHT22;8556;52.218;9.884;2023-12-28T01:22:34;8.70;99.90
16879;DHT22;8556;52.218;9.884;2023-12-28T01:25:01;8.70;1.00
16879;DHT22;8556;52.218;9.884;2023-12-28T01:27:27;8.60;1.00
16879;DHT22;8556;52.218;9.884;2023-12-28T01:29:54;8.50;1.00
16879;DHT22;8556;52.218;9.884;2023-12-28T01:32:23;8.40;99.90
16879;DHT22;8556;52.218;9.884;2023-12-28T01:34:49;8.40;1.00
16879;DHT22;8556;52.218;9.884;2023-12-28T01:37:16;8.50;99.90
16879;DHT22;8556;52.218;9.884;2023-12-28T01:39:43;8.40;99.90
16879;DHT22;8556;52.218;9.884;2023-12-28T01:42:10;8.30;99.90
16879;DHT22;8556;52.218;9.884;2023-12-28T01:44:36;8.40;99.90
16879;DHT22;8556;52.218;9.884;2023-12-28T01:47:04;8.40;99.90
16879;DHT22;8556;52.218;9.884;2023-12-28T01:49:33;8.40;99.90
16879;DHT22;8556;52.218;9.884;2023-12-28T01:52:01;8.40;99.90
16879;DHT22;8556;52.218;9.884;2023-12-28T01:54:29;8.40;99.90
16879;DHT22;8556;52.218;9.884;2023-12-28T01:56:56;8.40;99.90
16879;DHT22;8556;52.218;9.884;2023-12-28T01:59:23;8.40;98.50
16879;DHT22;8556;52.218;9.884;2023-12-28T02:01:50;8.50;1.00
16879;DHT22;8556;52.218;9.884;2023-12-28T02:04:17;8.50;1.00
16879;DHT22;8556;52.218;9.884;2023-12-28T02:06:53;8.60;1.00
16879;DHT22;8556;52.218;9.884;2023-12-28T02:09:22;8.60;1.00
16879;DHT22;8556;52.218;9.884;2023-12-28T02:11:49;8.80;1.00
16879;DHT22;8556;52.218;9.884;2023-12-28T02:14:16;8.70;1.00
16879;DHT22;8556;52.218;9.884;2023-12-28T02:16:46;8.70;1.00
16879;DHT22;8556;52.218;9.884;2023-12-28T02:19:22;8.70;99.90
16879;DHT22;8556;52.218;9.884;2023-12-28T02:21:54;8.70;49.40
16879;DHT22;8556;52.218;9.884;2023-12-28T02:24:22;8.60;99.90
16879;DHT22;8556;52.218;9.884;2023-12-28T02:26:50;8.60;99.90
16879;DHT22;8556;52.218;9.884;2023-12-28T02:29:17;8.60;99.90
16879;DHT22;8556;52.218;9.884;2023-12-28T02:31:49;8.70;99.90
16879;DHT22;8556;52.218;9.884;2023-12-28T02:34:22;8.70;99.90
16879;DHT22;8556;52.218;9.884;2023-12-28T02:36:52;8.80;99.90
16879;DHT22;8556;52.218;9.884;2023-12-28T02:39:20;8.70;1.00
16879;DHT22;8556;52.218;9.884;2023-12-28T02:41:50;8.70;1.00
16879;DHT22;8556;52.218;9.884;2023-12-28T02:44:18;8.70;1.00
16879;DHT22;8556;52.218;9.884;2023-12-28T02:46:45;8.80;1.00
16879;DHT22;8556;52.218;9.884;2023-12-28T02:49:12;8.80;1.00
16879;DHT22;8556;52.218;9.884;2023-12-28T02:51:40;8.80;1.00
16879;DHT22;8556;52.218;9.884;2023-12-28T02:54:08;8.80;1.00
16879;DHT22;8556;52.218;9.884;2023-12-28T02:56:34;8.80;1.00
16879;DHT22;8556;52.218;9.884;2023-12-28T02:59:03;8.80;1.00
16879;DHT22;8556;52.218;9.884;2023-12-28T03:01:30;8.90;1.00
16879;DHT22;8556;52.218;9.884;2023-12-28T03:03:56;8.80;1.00
16879;DHT22;8556;52.218;9.884;2023-12-28T03:06:23;8.80;1.00
16879;DHT22;8556;52.218;9.884;2023-12-28T03:08:50;8.80;4.20
16879;DHT22;8556;52.218;9.884;2023-12-28T03:11:17;8.80;99.90
16879;DHT22;8556;52.218;9.884;2023-12-28T03:13:46;8.80;99.90
16879;DHT22;8556;52.218;9.884;2023-12-28T03:16:15;8.90;99.90
16879;DHT22;8556;52.218;9.884;2023-12-28T03:18:42;8.90;99.90
16879;DHT22;8556;52.218;9.884;2023-12-28T03:21:08;9.00;99.90
16879;DHT22;8556;52.218;9.884;2023-12-28T03:23:35;8.90;99.90
16879;DHT22;8556;52.218;9.884;2023-12-28T03:26:02;8.90;99.90
16879;DHT22;8556;52.218;9.884;2023-12-28T03:28:29;8.90;99.90
16879;DHT22;8556;52.218;9.884;2023-12-28T03:30:55;8.90;99.90
16879;DHT22;8556;52.218;9.884;2023-12-28T03:33:25;8.90;1.00
16879;DHT22;8556;52.218;9.884;2023-12-28T03:35:52;8.90;1.00
16879;DHT22;8556;52.218;9.884;2023-12-28T03:38:19;8.90;1.00
16879;DHT22;8556;52.218;9.884;2023-12-28T03:40:46;8.90;99.90
16879;DHT22;8556;52.218;9.884;2023-12-28T03:43:14;9.00;1.00
16879;DHT22;8556;52.218;9.884;2023-12-28T03:45:41;9.00;73.00
16879;DHT22;8556;52.218;9.884;2023-12-28T03:48:08;9.10;1.00
16879;DHT22;8556;52.218;9.884;2023-12-28T03:50:36;9.10;1.00
16879;DHT22;8556;52.218;9.884;2023-12-28T03:53:03;9.10;1.00
16879;DHT22;8556;52.218;9.884;2023-12-28T03:55:30;9.00;1.00
16879;DHT22;8556;52.218;9.884;2023-12-28T03:57:57;9.00;1.00
16879;DHT22;8556;52.218;9.884;2023-12-28T04:00:24;9.10;1.00
16879;DHT22;8556;52.218;9.884;2023-12-28T04:02:51;9.10;1.00
16879;DHT22;8556;52.218;9.884;2023-12-28T04:05:18;9.10;1.00
16879;DHT22;8556;52.218;9.884;2023-12-28T04:07:46;9.10;1.00
16879;DHT22;8556;52.218;9.884;2023-12-28T04:10:13;9.10;1.00
16879;DHT22;8556;52.218;9.884;2023-12-28T04:12:40;9.20;1.00
16879;DHT22;8556;52.218;9.884;2023-12-28T04:15:07;9.30;1.00
16879;DHT22;8556;52.218;9.884;2023-12-28T04:17:33;9.20;1.00
16879;DHT22;8556;52.218;9.884;2023-12-28T04:20:00;9.20;1.00
16879;DHT22;8556;52.218;9.884;2023-12-28T04:22:27;9.20;1.00
16879;DHT22;8556;52.218;9.884;2023-12-28T04:24:55;9.20;1.00
16879;DHT22;8556;52.218;9.884;2023-12-28T04:27:22;9.30;1.00
16879;DHT22;8556;52.218;9.884;2023-12-28T04:29:49;9.30;1.00
16879;DHT22;8556;52.218;9.884;2023-12-28T04:32:16;9.40;1.00
16879;DHT22;8556;52.218;9.884;2023-12-28T04:34:43;9.30;1.00
16879;DHT22;8556;52.218;9.884;2023-12-28T04:37:10;9.30;1.00
16879;DHT22;8556;52.218;9.884;2023-12-28T04:39:37;9.30;1.00
16879;DHT22;8556;52.218;9.884;2023-12-28T04:42:05;9.30;1.00
16879;DHT22;8556;52.218;9.884;2023-12-28T04:44:36;9.20;1.00
16879;DHT22;8556;52.218;9.884;2023-12-28T04:47:04;9.30;1.00
16879;DHT22;8556;52.218;9.884;2023-12-28T04:49:31;9.30;99.90
16879;DHT22;8556;52.218;9.884;2023-12-28T04:51:58;9.30;99.90
16879;DHT22;8556;52.218;9.884;2023-12-28T04:54:25;9.40;99.90
16879;DHT22;8556;52.218;9.884;2023-12-28T04:56:53;9.40;99.90
16879;DHT22;8556;52.218;9.884;2023-12-28T04:59:21;9.50;99.90
16879;DHT22;8556;52.218;9.884;2023-12-28T05:01:48;9.50;99.90
16879;DHT22;8556;52.218;9.884;2023-12-28T05:04:15;9.50;99.90
16879;DHT22;8556;52.218;9.884;2023-12-28T05:06:41;9.40;99.90
16879;DHT22;8556;52.218;9.884;2023-12-28T05:09:08;9.40;98.80
16879;DHT22;8556;52.218;9.884;2023-12-28T05:11:35;9.40;99.90
16879;DHT22;8556;52.218;9.884;2023-12-28T05:14:02;9.30;99.90
16879;DHT22;8556;52.218;9.884;2023-12-28T05:16:30;9.40;1.00
16879;DHT22;8556;52.218;9.884;2023-12-28T05:18:57;9.40;6.80
16879;DHT22;8556;52.218;9.884;2023-12-28T05:21:23;9.40;1.00
16879;DHT22;8556;52.218;9.884;2023-12-28T05:23:50;9.40;1.00
16879;DHT22;8556;52.218;9.884;2023-12-28T05:26:17;9.40;1.00
16879;DHT22;8556;52.218;9.884;2023-12-28T05:28:44;9.50;1.00
16879;DHT22;8556;52.218;9.884;2023-12-28T05:31:11;9.30;72.10
16879;DHT22;8556;52.218;9.884;2023-12-28T05:33:40;9.40;48.10
16879;DHT22;8556;52.218;9.884;2023-12-28T05:36:07;9.40;54.50
16879;DHT22;8556;52.218;9.884;2023-12-28T05:38:35;9.40;1.00
16879;DHT22;8556;52.218;9.884;2023-12-28T05:41:01;9.30;65.40
16879;DHT22;8556;52.218;9.884;2023-12-28T05:43:28;9.40;12.70
16879;DHT22;8556;52.218;9.884;2023-12-28T05:45:55;9.40;16.00
16879;DHT22;8556;52.218;9.884;2023-12-28T05:48:22;9.40;52.70
16879;DHT22;8556;52.218;9.884;2023-12-28T05:50:50;9.30;93.60
16879;DHT22;8556;52.218;9.884;2023-12-28T05:53:17;9.20;99.90
16879;DHT22;8556;52.218;9.884;2023-12-28T05:55:44;9.20;99.90
16879;DHT22;8556;52.218;9.884;2023-12-28T05:58:11;9.30;70.60
16879;DHT22;8556;52.218;9.884;2023-12-28T06:00:37;9.30;95.40
16879;DHT22;8556;52.218;9.884;2023-12-28T06:03:05;9.40;30.40
16879;DHT22;8556;52.218;9.884;2023-12-28T06:05:32;9.40;1.00
16879;DHT22;8556;52.218;9.884;2023-12-28T06:08:00;9.40;1.00
16879;DHT22;8556;52.218;9.884;2023-12-28T06:10:27;9.50;1.00
16879;DHT22;8556;52.218;9.884;2023-12-28T06:12:54;9.50;1.00
16879;DHT22;8556;52.218;9.884;2023-12-28T06:15:21;9.50;1.00
16879;DHT22;8556;52.218;9.884;2023-12-28T06:17:48;9.50;1.00
16879;DHT22;8556;52.218;9.884;2023-12-28T06:20:15;9.50;1.00
16879;DHT22;8556;52.218;9.884;2023-12-28T06:22:41;9.50;1.00
16879;DHT22;8556;52.218;9.884;2023-12-28T06:25:11;9.60;1.00
16879;DHT22;8556;52.218;9.884;2023-12-28T06:27:38;9.60;1.00
16879;DHT22;8556;52.218;9.884;2023-12-28T06:30:06;9.60;1.00
16879;DHT22;8556;52.218;9.884;2023-12-28T06:32:33;9.50;1.00
16879;DHT22;8556;52.218;9.884;2023-12-28T06:35:00;9.60;1.00
16879;DHT22;8556;52.218;9.884;2023-12-28T06:37:27;9.60;1.00
16879;DHT22;8556;52.218;9.884;2023-12-28T06:39:54;9.50;1.00
16879;DHT22;8556;52.218;9.884;2023-12-28T06:42:22;9.50;1.00
16879;DHT22;8556;52.218;9.884;2023-12-28T06:44:49;9.60;1.00
16879;DHT22;8556;52.218;9.884;2023-12-28T06:47:16;9.60;1.00
16879;DHT22;8556;52.218;9.884;2023-12-28T06:49:42;9.60;1.00
16879;DHT22;8556;52.218;9.884;2023-12-28T06:52:09;9.60;1.00
16879;DHT22;8556;52.218;9.884;2023-12-28T06:54:36;9.50;1.00
16879;DHT22;8556;52.218;9.884;2023-12-28T06:57:03;9.50;1.00
16879;DHT22;8556;52.218;9.884;2023-12-28T06:59:32;9.50;1.00
16879;DHT22;8556;52.218;9.884;2023-12-28T07:01:58;9.50;1.00
16879;DHT22;8556;52.218;9.884;2023-12-28T07:04:25;9.50;1.00
16879;DHT22;8556;52.218;9.884;2023-12-28T07:06:54;9.60;1.00
16879;DHT22;8556;52.218;9.884;2023-12-28T07:09:21;9.50;1.00
16879;DHT22;8556;52.218;9.884;2023-12-28T07:11:48;9.50;1.00
16879;DHT22;8556;52.218;9.884;2023-12-28T07:14:15;9.50;1.00
16879;DHT22;8556;52.218;9.884;2023-12-28T07:16:43;9.50;1.00
16879;DHT22;8556;52.218;9.884;2023-12-28T07:19:11;9.60;1.00
16879;DHT22;8556;52.218;9.884;2023-12-28T07:21:37;9.50;1.00
16879;DHT22;8556;52.218;9.884;2023-12-28T07:24:05;9.60;1.00
16879;DHT22;8556;52.218;9.884;2023-12-28T07:26:32;9.50;1.00
16879;DHT22;8556;52.218;9.884;2023-12-28T07:28:58;9.50;1.00
16879;DHT22;8556;52.218;9.884;2023-12-28T07:31:26;9.50;1.00
16879;DHT22;8556;52.218;9.884;2023-12-28T07:33:54;9.50;1.00
16879;DHT22;8556;52.218;9.884;2023-12-28T07:36:21;9.40;1.00
16879;DHT22;8556;52.218;9.884;2023-12-28T07:38:48;9.40;1.00
16879;DHT22;8556;52.218;9.884;2023-12-28T07:41:14;9.50;1.00
16879;DHT22;8556;52.218;9.884;2023-12-28T07:43:42;9.60;99.90
16879;DHT22;8556;52.218;9.884;2023-12-28T07:46:08;9.50;99.90
16879;DHT22;8556;52.218;9.884;2023-12-28T07:48:35;9.50;99.90
16879;DHT22;8556;52.218;9.884;2023-12-28T07:51:05;9.60;99.90
16879;DHT22;8556;52.218;9.884;2023-12-28T07:53:32;9.60;99.90
16879;DHT22;8556;52.218;9.884;2023-12-28T07:55:59;9.50;99.90
16879;DHT22;8556;52.218;9.884;2023-12-28T07:58:26;9.50;99.90
16879;DHT22;8556;52.218;9.884;2023-12-28T08:00:53;9.50;99.90
16879;DHT22;8556;52.218;9.884;2023-12-28T08:03:20;9.50;99.90
16879;DHT22;8556;52.218;9.884;2023-12-28T08:05:47;9.50;99.90
16879;DHT22;8556;52.218;9.884;2023-12-28T08:08:15;9.50;99.90
16879;DHT22;8556;52.218;9.884;2023-12-28T08:10:42;9.60;99.90
16879;DHT22;8556;52.218;9.884;2023-12-28T08:13:09;9.60;99.90
16879;DHT22;8556;52.218;9.884;2023-12-28T08:15:35;9.50;99.90
16879;DHT22;8556;52.218;9.884;2023-12-28T08:18:03;9.50;99.90
16879;DHT22;8556;52.218;9.884;2023-12-28T08:20:29;9.50;99.90
16879;DHT22;8556;52.218;9.884;2023-12-28T08:22:56;9.80;99.90
16879;DHT22;8556;52.218;9.884;2023-12-28T08:25:24;9.70;99.90
16879;DHT22;8556;52.218;9.884;2023-12-28T08:27:51;9.70;99.90
16879;DHT22;8556;52.218;9.884;2023-12-28T08:30:18;9.70;99.90
16879;DHT22;8556;52.218;9.884;2023-12-28T08:32:45;9.70;99.90
16879;DHT22;8556;52.218;9.884;2023-12-28T08:35:12;9.70;99.90
16879;DHT22;8556;52.218;9.884;2023-12-28T08:37:38;9.80;99.90
16879;DHT22;8556;52.218;9.884;2023-12-28T08:40:07;9.90;45.10
16879;DHT22;8556;52.218;9.884;2023-12-28T08:42:35;9.80;57.70
16879;DHT22;8556;52.218;9.884;2023-12-28T08:45:02;9.80;22.60
16879;DHT22;8556;52.218;9.884;2023-12-28T08:47:29;9.90;1.00
16879;DHT22;8556;52.218;9.884;2023-12-28T08:49:56;9.90;1.00
16879;DHT22;8556;52.218;9.884;2023-12-28T08:52:22;9.90;1.00
16879;DHT22;8556;52.218;9.884;2023-12-28T08:54:49;9.90;1.00
16879;DHT22;8556;52.218;9.884;2023-12-28T08:57:16;9.90;1.00
16879;DHT22;8556;52.218;9.884;2023-12-28T08:59:44;9.90;1.00
16879;DHT22;8556;52.218;9.884;2023-12-28T09:02:11;10.00;1.00
16879;DHT22;8556;52.218;9.884;2023-12-28T09:04:38;10.00;1.00
16879;DHT22;8556;52.218;9.884;2023-12-28T09:07:05;10.00;1.00
16879;DHT22;8556;52.218;9.884;2023-12-28T09:09:32;10.00;1.00
16879;DHT22;8556;52.218;9.884;2023-12-28T09:11:59;10.00;1.00
16879;DHT22;8556;52.218;9.884;2023-12-28T09:14:26;10.10;1.00
16879;DHT22;8556;52.218;9.884;2023-12-28T09:16:54;10.20;1.00
16879;DHT22;8556;52.218;9.884;2023-12-28T09:19:20;10.20;1.00
16879;DHT22;8556;52.218;9.884;2023-12-28T09:21:48;10.20;1.00
16879;DHT22;8556;52.218;9.884;2023-12-28T09:24:15;10.30;1.00
16879;DHT22;8556;52.218;9.884;2023-12-28T09:26:44;10.30;1.00
16879;DHT22;8556;52.218;9.884;2023-12-28T09:29:11;10.40;1.00
16879;DHT22;8556;52.218;9.884;2023-12-28T09:31:39;10.40;1.00
16879;DHT22;8556;52.218;9.884;2023-12-28T09:34:07;10.50;1.00
16879;DHT22;8556;52.218;9.884;2023-12-28T09:36:34;10.50;1.00
16879;DHT22;8556;52.218;9.884;2023-12-28T09:39:00;10.70;1.00
16879;DHT22;8556;52.218;9.884;2023-12-28T09:41:30;10.80;1.00
16879;DHT22;8556;52.218;9.884;2023-12-28T09:44:06;11.00;1.00
16879;DHT22;8556;52.218;9.884;2023-12-28T09:46:34;11.10;1.00
16879;DHT22;8556;52.218;9.884;2023-12-28T09:49:01;10.90;1.00
16879;DHT22;8556;52.218;9.884;2023-12-28T09:51:30;10.90;1.00
16879;DHT22;8556;52.218;9.884;2023-12-28T09:53:57;10.90;1.00
16879;DHT22;8556;52.218;9.884;2023-12-28T09:56:24;11.10;1.00
16879;DHT22;8556;52.218;9.884;2023-12-28T09:58:51;11.10;1.00
16879;DHT22;8556;52.218;9.884;2023-12-28T10:01:20;11.10;1.00
16879;DHT22;8556;52.218;9.884;2023-12-28T10:03:47;11.10;1.00
16879;DHT22;8556;52.218;9.884;2023-12-28T10:06:14;11.10;1.00
16879;DHT22;8556;52.218;9.884;2023-12-28T10:08:46;11.20;1.00
16879;DHT22;8556;52.218;9.884;2023-12-28T10:11:14;11.10;1.00
16879;DHT22;8556;52.218;9.884;2023-12-28T10:13:42;11.20;1.00
16879;DHT22;8556;52.218;9.884;2023-12-28T10:16:09;11.10;1.00
16879;DHT22;8556;52.218;9.884;2023-12-28T10:18:39;11.10;1.00
16879;DHT22;8556;52.218;9.884;2023-12-28T10:21:07;11.00;1.00
16879;DHT22;8556;52.218;9.884;2023-12-28T10:23:34;11.00;1.00
16879;DHT22;8556;52.218;9.884;2023-12-28T10:26:03;11.00;1.00
16879;DHT22;8556;52.218;9.884;2023-12-28T10:28:31;11.00;1.00
16879;DHT22;8556;52.218;9.884;2023-12-28T10:30:59;11.20;1.00
16879;DHT22;8556;52.218;9.884;2023-12-28T10:33:25;11.30;1.00
16879;DHT22;8556;52.218;9.884;2023-12-28T10:35:52;11.40;1.00
16879;DHT22;8556;52.218;9.884;2023-12-28T10:38:22;11.60;1.00
16879;DHT22;8556;52.218;9.884;2023-12-28T10:40:51;11.50;1.00
16879;DHT22;8556;52.218;9.884;2023-12-28T10:43:20;11.50;1.00
16879;DHT22;8556;52.218;9.884;2023-12-28T10:45:51;11.60;1.00
16879;DHT22;8556;52.218;9.884;2023-12-28T10:48:25;11.60;1.00
16879;DHT22;8556;52.218;9.884;2023-12-28T10:50:57;11.60;1.00
16879;DHT22;8556;52.218;9.884;2023-12-28T10:53:32;11.60;1.00
16879;DHT22;8556;52.218;9.884;2023-12-28T10:56:10;11.60;1.00
16879;DHT22;8556;52.218;9.884;2023-12-28T10:58:48;11.40;1.00
16879;DHT22;8556;52.218;9.884;2023-12-28T11:01:20;11.50;1.00
16879;DHT22;8556;52.218;9.884;2023-12-28T11:03:58;11.40;1.00
16879;DHT22;8556;52.218;9.884;2023-12-28T11:06:30;11.40;1.00
16879;DHT22;8556;52.218;9.884;2023-12-28T11:08:58;11.40;1.00
16879;DHT22;8556;52.218;9.884;2023-12-28T11:11:26;11.40;1.00
16879;DHT22;8556;52.218;9.884;2023-12-28T11:13:56;11.40;1.00
16879;DHT22;8556;52.218;9.884;2023-12-28T11:16:26;11.40;1.00
16879;DHT22;8556;52.218;9.884;2023-12-28T11:18:54;11.40;1.00
16879;DHT22;8556;52.218;9.884;2023-12-28T11:21:22;11.30;1.00
16879;DHT22;8556;52.218;9.884;2023-12-28T11:23:49;11.30;1.00
16879;DHT22;8556;52.218;9.884;2023-12-28T11:26:17;11.30;1.00
16879;DHT22;8556;52.218;9.884;2023-12-28T11:28:44;11.30;1.00
16879;DHT22;8556;52.218;9.884;2023-12-28T11:31:13;11.30;1.00
16879;DHT22;8556;52.218;9.884;2023-12-28T11:33:45;11.30;1.00
16879;DHT22;8556;52.218;9.884;2023-12-28T11:36:20;11.30;1.00
16879;DHT22;8556;52.218;9.884;2023-12-28T11:38:50;11.20;1.00
16879;DHT22;8556;52.218;9.884;2023-12-28T11:41:17;11.30;1.00
16879;DHT22;8556;52.218;9.884;2023-12-28T11:43:52;11.40;1.00
16879;DHT22;8556;52.218;9.884;2023-12-28T11:46:22;11.20;1.00
16879;DHT22;8556;52.218;9.884;2023-12-28T11:48:49;11.30;1.00
16879;DHT22;8556;52.218;9.884;2023-12-28T11:51:16;11.30;1.00
16879;DHT22;8556;52.218;9.884;2023-12-28T11:53:45;11.20;1.00
16879;DHT22;8556;52.218;9.884;2023-12-28T11:56:15;11.40;1.00
16879;DHT22;8556;52.218;9.884;2023-12-28T11:58:42;11.30;1.00
16879;DHT22;8556;52.218;9.884;2023-12-28T12:01:11;11.30;1.00
16879;DHT22;8556;52.218;9.884;2023-12-28T12:03:39;11.30;1.00
16879;DHT22;8556;52.218;9.884;2023-12-28T12:06:06;11.30;1.00
16879;DHT22;8556;52.218;9.884;2023-12-28T12:08:33;11.40;1.00
16879;DHT22;8556;52.218;9.884;2023-12-28T12:11:01;11.50;99.90
16879;DHT22;8556;52.218;9.884;2023-12-28T12:13:29;11.50;99.90
16879;DHT22;8556;52.218;9.884;2023-12-28T12:15:56;11.50;99.90
16879;DHT22;8556;52.218;9.884;2023-12-28T12:18:23;11.60;99.90
16879;DHT22;8556;52.218;9.884;2023-12-28T12:20:51;11.60;99.90
16879;DHT22;8556;52.218;9.884;2023-12-28T12:23:18;11.50;99.90
16879;DHT22;8556;52.218;9.884;2023-12-28T12:25:45;11.50;99.90
16879;DHT22;8556;52.218;9.884;2023-12-28T12:28:12;11.50;99.90
16879;DHT22;8556;52.218;9.884;2023-12-28T12:30:40;11.60;99.90
16879;DHT22;8556;52.218;9.884;2023-12-28T12:33:07;11.60;99.90
16879;DHT22;8556;52.218;9.884;2023-12-28T12:35:35;11.60;99.90
16879;DHT22;8556;52.218;9.884;2023-12-28T12:38:04;11.60;99.90
16879;DHT22;8556;52.218;9.884;2023-12-28T12:40:31;11.60;99.90
16879;DHT22;8556;52.218;9.884;2023-12-28T12:43:00;11.60;99.90
16879;DHT22;8556;52.218;9.884;2023-12-28T12:45:27;11.60;99.90
16879;DHT22;8556;52.218;9.884;2023-12-28T12:47:54;11.70;99.90
16879;DHT22;8556;52.218;9.884;2023-12-28T12:50:21;11.80;99.90
16879;DHT22;8556;52.218;9.884;2023-12-28T12:52:48;11.60;99.90
16879;DHT22;8556;52.218;9.884;2023-12-28T12:55:16;11.60;99.90
16879;DHT22;8556;52.218;9.884;2023-12-28T12:57:43;11.60;99.90
16879;DHT22;8556;52.218;9.884;2023-12-28T13:00:10;11.70;99.90
16879;DHT22;8556;52.218;9.884;2023-12-28T13:02:37;11.70;99.90
16879;DHT22;8556;52.218;9.884;2023-12-28T13:05:05;11.60;99.90
16879;DHT22;8556;52.218;9.884;2023-12-28T13:07:32;11.60;99.90
16879;DHT22;8556;52.218;9.884;2023-12-28T13:09:59;11.60;99.90
16879;DHT22;8556;52.218;9.884;2023-12-28T13:12:27;11.60;99.90
16879;DHT22;8556;52.218;9.884;2023-12-28T13:14:54;11.60;99.90
16879;DHT22;8556;52.218;9.884;2023-12-28T13:17:21;11.50;99.90
16879;DHT22;8556;52.218;9.884;2023-12-28T13:19:48;11.40;99.90
16879;DHT22;8556;52.218;9.884;2023-12-28T13:22:15;11.50;99.90
16879;DHT22;8556;52.218;9.884;2023-12-28T13:24:41;11.50;99.90
16879;DHT22;8556;52.218;9.884;2023-12-28T13:27:08;11.50;99.90
16879;DHT22;8556;52.218;9.884;2023-12-28T13:29:37;11.50;99.90
16879;DHT22;8556;52.218;9.884;2023-12-28T13:32:05;11.50;99.90
16879;DHT22;8556;52.218;9.884;2023-12-28T13:34:32;11.50;99.90
16879;DHT22;8556;52.218;9.884;2023-12-28T13:36:59;11.50;99.90
16879;DHT22;8556;52.218;9.884;2023-12-28T13:39:27;11.50;99.90
16879;DHT22;8556;52.218;9.884;2023-12-28T13:41:54;11.40;99.90
16879;DHT22;8556;52.218;9.884;2023-12-28T13:44:21;11.40;99.90
16879;DHT22;8556;52.218;9.884;2023-12-28T13:46:49;11.40;99.90
16879;DHT22;8556;52.218;9.884;2023-12-28T13:49:16;11.40;99.90
16879;DHT22;8556;52.218;9.884;2023-12-28T13:51:43;11.40;99.90
16879;DHT22;8556;52.218;9.884;2023-12-28T13:54:11;11.40;99.90
16879;DHT22;8556;52.218;9.884;2023-12-28T13:56:38;11.40;99.90
16879;DHT22;8556;52.218;9.884;2023-12-28T13:59:07;11.40;99.90
16879;DHT22;8556;52.218;9.884;2023-12-28T14:01:34;11.40;99.90
16879;DHT22;8556;52.218;9.884;2023-12-28T14:04:02;11.40;99.90
16879;DHT22;8556;52.218;9.884;2023-12-28T14:06:29;11.30;99.90
16879;DHT22;8556;52.218;9.884;2023-12-28T14:08:56;11.40;99.90
16879;DHT22;8556;52.218;9.884;2023-12-28T14:11:23;11.40;99.90
16879;DHT22;8556;52.218;9.884;2023-12-28T14:13:50;11.30;99.90
16879;DHT22;8556;52.218;9.884;2023-12-28T14:16:17;11.40;99.90
16879;DHT22;8556;52.218;9.884;2023-12-28T14:18:44;11.20;99.90
16879;DHT22;8556;52.218;9.884;2023-12-28T14:21:14;11.20;99.90
16879;DHT22;8556;52.218;9.884;2023-12-28T14:23:41;11.20;99.90
16879;DHT22;8556;52.218;9.884;2023-12-28T14:26:12;11.20;99.90
16879;DHT22;8556;52.218;9.884;2023-12-28T14:28:40;11.20;99.90
16879;DHT22;8556;52.218;9.884;2023-12-28T14:31:08;11.20;99.90
16879;DHT22;8556;52.218;9.884;2023-12-28T14:33:35;11.20;99.90
16879;DHT22;8556;52.218;9.884;2023-12-28T14:36:02;11.20;99.90
16879;DHT22;8556;52.218;9.884;2023-12-28T14:38:32;11.30;99.90
16879;DHT22;8556;52.218;9.884;2023-12-28T14:40:58;11.30;99.90
16879;DHT22;8556;52.218;9.884;2023-12-28T14:43:25;11.20;99.90
16879;DHT22;8556;52.218;9.884;2023-12-28T14:45:52;11.20;99.90
16879;DHT22;8556;52.218;9.884;2023-12-28T14:48:19;11.20;99.90
16879;DHT22;8556;52.218;9.884;2023-12-28T14:50:45;11.20;99.90
16879;DHT22;8556;52.218;9.884;2023-12-28T14:53:20;11.20;99.90
16879;DHT22;8556;52.218;9.884;2023-12-28T14:55:50;11.20;99.90
16879;DHT22;8556;52.218;9.884;2023-12-28T14:58:17;11.20;99.90
16879;DHT22;8556;52.218;9.884;2023-12-28T15:00:44;11.20;99.90
16879;DHT22;8556;52.218;9.884;2023-12-28T15:03:11;11.10;99.90
16879;DHT22;8556;52.218;9.884;2023-12-28T15:05:38;11.00;99.90
16879;DHT22;8556;52.218;9.884;2023-12-28T15:08:05;11.00;99.90
16879;DHT22;8556;52.218;9.884;2023-12-28T15:10:34;11.00;99.90
16879;DHT22;8556;52.218;9.884;2023-12-28T15:13:01;11.00;99.90
16879;DHT22;8556;52.218;9.884;2023-12-28T15:15:29;10.90;99.90
16879;DHT22;8556;52.218;9.884;2023-12-28T15:17:57;10.90;99.90
16879;DHT22;8556;52.218;9.884;2023-12-28T15:20:24;10.80;99.90
16879;DHT22;8556;52.218;9.884;2023-12-28T15:22:52;10.80;99.90
16879;DHT22;8556;52.218;9.884;2023-12-28T15:25:19;10.80;99.90
16879;DHT22;8556;52.218;9.884;2023-12-28T15:27:48;10.90;99.90
16879;DHT22;8556;52.218;9.884;2023-12-28T15:30:15;10.80;99.90
16879;DHT22;8556;52.218;9.884;2023-12-28T15:32:41;10.80;99.90
16879;DHT22;8556;52.218;9.884;2023-12-28T15:35:12;10.90;99.90
16879;DHT22;8556;52.218;9.884;2023-12-28T15:37:39;10.90;99.90
16879;DHT22;8556;52.218;9.884;2023-12-28T15:40:07;10.80;99.90
16879;DHT22;8556;52.218;9.884;2023-12-28T15:42:34;10.90;99.90
16879;DHT22;8556;52.218;9.884;2023-12-28T15:45:03;10.80;99.90
16879;DHT22;8556;52.218;9.884;2023-12-28T15:47:31;10.90;99.90
16879;DHT22;8556;52.218;9.884;2023-12-28T15:49:58;11.00;99.90
16879;DHT22;8556;52.218;9.884;2023-12-28T15:52:26;11.00;99.90
16879;DHT22;8556;52.218;9.884;2023-12-28T15:54:53;10.90;99.90
16879;DHT22;8556;52.218;9.884;2023-12-28T15:57:20;10.90;99.90
16879;DHT22;8556;52.218;9.884;2023-12-28T15:59:47;10.80;99.90
16879;DHT22;8556;52.218;9.884;2023-12-28T16:02:15;10.80;99.90
16879;DHT22;8556;52.218;9.884;2023-12-28T16:04:42;10.80;99.90